createdAt,value
2023-05-06T00:01:00.714Z,1.00
2023-05-06T00:03:28.268Z,1.00
2023-05-06T00:05:55.316Z,1.00
2023-05-06T00:08:21.917Z,97.10
2023-05-06T00:10:48.530Z,99.90
2023-05-06T00:13:16.097Z,99.90
2023-05-06T00:15:42.827Z,99.90
2023-05-06T00:18:09.597Z,99.90
2023-05-06T00:20:36.361Z,99.90
2023-05-06T00:23:02.977Z,99.90
2023-05-06T00:25:29.550Z,99.90
2023-05-06T00:27:56.173Z,99.90
2023-05-06T00:30:23.106Z,99.90
2023-05-06T00:32:49.790Z,99.90
2023-05-06T00:35:16.551Z,99.90
2023-05-06T00:37:46.328Z,99.90
2023-05-06T00:40:14.103Z,99.90
2023-05-06T00:42:40.707Z,1.00
2023-05-06T00:45:07.984Z,1.00
2023-05-06T00:47:34.869Z,1.00
2023-05-06T00:50:01.697Z,1.00
2023-05-06T00:52:28.876Z,1.00
2023-05-06T00:54:56.321Z,1.00
2023-05-06T00:57:23.479Z,1.00
2023-05-06T00:59:50.098Z,1.00
2023-05-06T01:02:17.302Z,1.00
2023-05-06T01:04:44.206Z,1.00
2023-05-06T01:07:31.531Z,1.00
2023-05-06T01:10:24.486Z,1.00
2023-05-06T01:13:12.221Z,1.00
2023-05-06T01:15:46.766Z,99.90
2023-05-06T01:18:18.096Z,99.90
2023-05-06T01:20:52.087Z,99.90
2023-05-06T01:23:19.299Z,99.90
2023-05-06T01:25:46.155Z,99.90
2023-05-06T01:28:13.952Z,1.00
2023-05-06T01:30:52.617Z,1.00
2023-05-06T01:33:29.405Z,1.00
2023-05-06T01:36:08.121Z,1.00
2023-05-06T01:39:21.155Z,1.00
2023-05-06T01:41:50.308Z,1.00
2023-05-06T01:44:18.976Z,99.90
2023-05-06T01:46:46.069Z,99.90
2023-05-06T01:49:14.683Z,1.00
2023-05-06T01:51:46.838Z,1.00
2023-05-06T01:54:13.590Z,1.00
2023-05-06T01:56:40.243Z,31.50
2023-05-06T01:59:06.858Z,86.00
2023-05-06T02:01:33.567Z,99.90
2023-05-06T02:04:00.634Z,99.90
2023-05-06T02:06:27.355Z,99.90
2023-05-06T02:08:53.971Z,99.90
2023-05-06T02:11:20.591Z,1.00
2023-05-06T02:13:47.280Z,1.00
2023-05-06T02:16:13.891Z,1.00
2023-05-06T02:18:41.440Z,1.00
2023-05-06T02:21:09.637Z,26.80
2023-05-06T02:23:36.241Z,99.90
2023-05-06T02:26:03.556Z,99.90
2023-05-06T02:28:30.416Z,99.90
2023-05-06T02:30:57.828Z,1.00
2023-05-06T02:33:25.067Z,1.00
2023-05-06T02:35:51.815Z,1.00
2023-05-06T02:38:19.156Z,99.90
2023-05-06T02:40:45.856Z,1.00
2023-05-06T02:43:12.531Z,1.00
2023-05-06T02:45:39.349Z,1.00
2023-05-06T02:48:06.316Z,1.00
2023-05-06T02:50:33.777Z,1.00
2023-05-06T02:53:00.375Z,1.00
2023-05-06T02:55:26.980Z,1.00
2023-05-06T02:57:53.609Z,1.00
2023-05-06T03:00:20.459Z,1.00
2023-05-06T03:02:47.209Z,1.00
2023-05-06T03:05:13.839Z,1.00
2023-05-06T03:07:41.340Z,1.00
2023-05-06T03:10:08.265Z,1.00
2023-05-06T03:12:35.023Z,96.00
2023-05-06T03:15:01.746Z,88.50
2023-05-06T03:17:28.372Z,1.00
2023-05-06T03:19:55.056Z,1.00
2023-05-06T03:22:21.619Z,1.00
2023-05-06T03:24:48.296Z,1.00
2023-05-06T03:27:14.949Z,1.00
2023-05-06T03:29:41.545Z,1.00
2023-05-06T03:32:08.248Z,1.00
2023-05-06T03:34:34.860Z,1.00
2023-05-06T03:37:01.603Z,16.10
2023-05-06T03:39:28.241Z,1.00
2023-05-06T03:41:54.881Z,99.90
2023-05-06T03:44:21.453Z,65.90
2023-05-06T03:46:48.070Z,1.00
2023-05-06T03:49:14.755Z,1.00
2023-05-06T03:51:41.427Z,1.00
2023-05-06T03:54:08.036Z,1.00
2023-05-06T03:56:34.734Z,1.00
2023-05-06T03:59:01.348Z,1.00
2023-05-06T04:01:27.952Z,1.00
2023-05-06T04:03:54.649Z,1.00
2023-05-06T04:06:21.385Z,1.00
2023-05-06T04:08:47.958Z,1.00
2023-05-06T04:11:14.859Z,99.90
2023-05-06T04:13:41.537Z,99.90
2023-05-06T04:16:08.650Z,1.00
2023-05-06T04:18:36.009Z,99.90
2023-05-06T04:21:02.618Z,99.90
2023-05-06T04:23:29.234Z,1.00
2023-05-06T04:25:55.837Z,1.00
2023-05-06T04:28:22.476Z,1.00
2023-05-06T04:30:49.124Z,99.90
2023-05-06T04:33:15.861Z,99.90
2023-05-06T04:35:53.108Z,1.00
2023-05-06T04:38:21.788Z,99.90
2023-05-06T04:40:49.618Z,99.90
2023-05-06T04:43:16.486Z,99.90
2023-05-06T04:45:49.317Z,99.90
2023-05-06T04:48:18.369Z,43.00
2023-05-06T04:50:45.432Z,99.90
2023-05-06T04:53:13.810Z,1.00
2023-05-06T04:55:40.674Z,99.90
2023-05-06T04:58:07.546Z,1.00
2023-05-06T05:00:34.817Z,32.40
2023-05-06T05:03:02.089Z,29.00
2023-05-06T05:05:29.202Z,1.00
2023-05-06T05:07:56.133Z,99.90
2023-05-06T05:10:22.810Z,99.90
2023-05-06T05:12:49.452Z,99.90
2023-05-06T05:15:16.126Z,99.90
2023-05-06T05:17:42.829Z,99.90
2023-05-06T05:20:09.965Z,36.00
2023-05-06T05:22:36.757Z,25.50
2023-05-06T05:25:05.038Z,1.00
2023-05-06T05:27:33.002Z,99.90
2023-05-06T05:30:00.358Z,99.90
2023-05-06T05:32:26.966Z,99.90
2023-05-06T05:34:53.705Z,99.90
2023-05-06T05:37:20.799Z,99.90
2023-05-06T05:39:47.447Z,99.90
2023-05-06T05:42:14.120Z,99.90
2023-05-06T05:44:40.765Z,51.30
2023-05-06T05:47:07.383Z,1.00
2023-05-06T05:49:33.973Z,1.00
2023-05-06T05:52:00.593Z,1.00
2023-05-06T05:54:27.245Z,1.00
2023-05-06T05:56:53.856Z,1.00
2023-05-06T05:59:20.611Z,1.00
2023-05-06T06:01:47.240Z,1.00
2023-05-06T06:04:13.876Z,1.00
2023-05-06T06:06:40.502Z,1.00
2023-05-06T06:09:07.251Z,1.00
2023-05-06T06:11:33.920Z,1.00
2023-05-06T06:14:00.966Z,1.00
2023-05-06T06:16:27.880Z,1.00
2023-05-06T06:18:54.560Z,99.90
2023-05-06T06:21:21.356Z,99.90
2023-05-06T06:23:47.953Z,1.00
2023-05-06T06:26:14.619Z,1.00
2023-05-06T06:28:41.971Z,1.00
2023-05-06T06:31:08.586Z,1.00
2023-05-06T06:33:35.700Z,1.00
2023-05-06T06:36:02.309Z,1.00
2023-05-06T06:38:28.921Z,1.00
2023-05-06T06:40:55.542Z,1.00
2023-05-06T06:43:23.755Z,1.00
2023-05-06T06:45:50.543Z,99.90
2023-05-06T06:48:17.303Z,1.00
2023-05-06T06:50:43.974Z,1.00
2023-05-06T06:53:10.999Z,1.00
2023-05-06T06:55:37.762Z,1.00
2023-05-06T06:58:04.357Z,1.00
2023-05-06T07:00:31.140Z,99.90
2023-05-06T07:02:57.754Z,99.90
2023-05-06T07:05:27.018Z,99.90
2023-05-06T07:07:53.737Z,99.90
2023-05-06T07:10:20.432Z,99.90
2023-05-06T07:12:47.140Z,1.00
2023-05-06T07:15:14.012Z,1.00
2023-05-06T07:17:40.751Z,1.00
2023-05-06T07:20:07.977Z,1.00
2023-05-06T07:22:34.705Z,1.00
2023-05-06T07:25:01.276Z,1.00
2023-05-06T07:27:30.287Z,99.90
2023-05-06T07:29:56.918Z,99.90
2023-05-06T07:32:23.592Z,99.90
2023-05-06T07:34:50.248Z,99.90
2023-05-06T07:37:16.870Z,99.90
2023-05-06T07:39:43.580Z,99.90
2023-05-06T07:42:13.148Z,1.00
2023-05-06T07:44:40.245Z,1.00
2023-05-06T07:47:07.051Z,1.00
2023-05-06T07:49:35.151Z,1.00
2023-05-06T07:52:04.126Z,1.00
2023-05-06T07:54:31.781Z,99.90
2023-05-06T07:56:58.749Z,99.90
2023-05-06T07:59:25.428Z,99.90
2023-05-06T08:01:52.292Z,99.90
2023-05-06T08:04:18.968Z,1.00
2023-05-06T08:06:45.617Z,1.00
2023-05-06T08:09:14.862Z,1.00
2023-05-06T08:11:50.226Z,1.00
2023-05-06T08:14:16.880Z,1.00
2023-05-06T08:16:43.693Z,1.00
2023-05-06T08:19:10.473Z,1.00
2023-05-06T08:21:39.945Z,1.00
2023-05-06T08:24:06.787Z,1.00
2023-05-06T08:26:33.410Z,1.00
2023-05-06T08:29:00.013Z,1.00
2023-05-06T08:31:26.837Z,1.00
2023-05-06T08:33:54.840Z,1.00
2023-05-06T08:36:23.859Z,99.90
2023-05-06T08:38:51.011Z,1.00
2023-05-06T08:41:19.340Z,99.90
2023-05-06T08:43:47.635Z,1.00
2023-05-06T08:46:14.873Z,1.00
2023-05-06T08:48:41.802Z,1.00
2023-05-06T08:51:09.255Z,1.00
2023-05-06T08:53:36.505Z,1.00
2023-05-06T08:56:06.827Z,1.00
2023-05-06T08:58:35.120Z,1.00
2023-05-06T09:01:03.683Z,1.00
2023-05-06T09:03:30.656Z,1.00
2023-05-06T09:05:58.153Z,1.00
2023-05-06T09:08:24.784Z,1.00
2023-05-06T09:10:51.428Z,1.00
2023-05-06T09:13:19.582Z,1.00
2023-05-06T09:15:48.624Z,1.00
2023-05-06T09:18:16.328Z,1.00
2023-05-06T09:20:45.910Z,1.00
2023-05-06T09:23:14.482Z,1.00
2023-05-06T09:25:42.747Z,99.90
2023-05-06T09:28:11.513Z,1.00
2023-05-06T09:30:40.850Z,1.00
2023-05-06T09:33:08.079Z,1.00
2023-05-06T09:35:42.840Z,1.00
2023-05-06T09:38:10.602Z,99.90
2023-05-06T09:40:38.720Z,99.90
2023-05-06T09:43:06.772Z,99.90
2023-05-06T09:45:33.598Z,99.90
2023-05-06T09:48:01.065Z,99.90
2023-05-06T09:50:28.459Z,99.90
2023-05-06T09:52:56.091Z,99.90
2023-05-06T09:55:26.510Z,99.90
2023-05-06T09:57:53.357Z,1.00
2023-05-06T10:00:26.798Z,1.00
2023-05-06T10:02:54.522Z,99.90
2023-05-06T10:05:22.799Z,99.90
2023-05-06T10:07:51.999Z,99.90
2023-05-06T10:10:18.725Z,1.00
2023-05-06T10:12:46.530Z,1.00
2023-05-06T10:15:13.298Z,1.00
2023-05-06T10:17:45.141Z,1.00
2023-05-06T10:20:13.997Z,1.00
2023-05-06T10:22:40.697Z,1.00
2023-05-06T10:25:17.131Z,1.00
2023-05-06T10:27:45.848Z,1.00
2023-05-06T10:30:15.722Z,1.00
2023-05-06T10:32:43.987Z,1.00
2023-05-06T10:35:20.454Z,1.00
2023-05-06T10:37:49.040Z,33.20
2023-05-06T10:40:15.898Z,2.10
2023-05-06T10:42:42.712Z,1.00
2023-05-06T10:45:10.877Z,1.00
2023-05-06T10:47:56.040Z,1.00
2023-05-06T10:50:24.741Z,19.10
2023-05-06T10:52:55.362Z,48.40
2023-05-06T10:55:32.062Z,51.80
2023-05-06T10:58:16.246Z,19.30
2023-05-06T11:00:54.040Z,1.00
2023-05-06T11:03:24.219Z,1.00
2023-05-06T11:05:52.208Z,1.00
2023-05-06T11:08:24.158Z,1.00
2023-05-06T11:10:51.133Z,1.00
2023-05-06T11:13:28.396Z,1.00
2023-05-06T11:15:58.926Z,1.00
2023-05-06T11:18:29.190Z,1.00
2023-05-06T11:21:02.426Z,1.00
2023-05-06T11:23:49.354Z,1.00
2023-05-06T11:26:16.377Z,1.00
2023-05-06T11:28:44.897Z,1.00
2023-05-06T11:31:13.061Z,1.00
2023-05-06T11:33:50.313Z,1.00
2023-05-06T11:36:18.845Z,1.00
2023-05-06T11:38:49.387Z,1.00
2023-05-06T11:41:16.880Z,1.00
2023-05-06T11:43:49.824Z,1.00
2023-05-06T11:46:20.574Z,1.00
2023-05-06T11:48:47.315Z,1.00
2023-05-06T11:51:14.382Z,1.00
2023-05-06T11:53:41.205Z,99.90
2023-05-06T11:56:08.210Z,99.90
2023-05-06T11:58:34.832Z,99.90
2023-05-06T12:01:03.712Z,99.90
2023-05-06T12:03:32.260Z,99.90
2023-05-06T12:05:59.337Z,99.90
2023-05-06T12:08:34.543Z,99.90
2023-05-06T12:11:03.119Z,99.90
2023-05-06T12:13:30.296Z,99.90
2023-05-06T12:15:59.162Z,99.90
2023-05-06T12:18:27.070Z,99.90
2023-05-06T12:21:00.948Z,99.90
2023-05-06T12:23:27.622Z,99.90
2023-05-06T12:26:02.442Z,99.90
2023-05-06T12:28:30.134Z,99.90
2023-05-06T12:30:56.717Z,99.90
2023-05-06T12:33:23.537Z,94.60
2023-05-06T12:35:51.672Z,75.10
2023-05-06T12:38:18.568Z,43.20
2023-05-06T12:40:53.595Z,8.90
2023-05-06T12:43:28.937Z,7.90
2023-05-06T12:46:07.511Z,8.20
2023-05-06T12:48:34.467Z,2.60
2023-05-06T12:51:18.177Z,10.40
2023-05-06T12:53:44.794Z,1.00
2023-05-06T12:56:11.380Z,1.00
2023-05-06T12:58:39.507Z,1.00
2023-05-06T13:01:09.956Z,1.00
2023-05-06T13:03:38.778Z,1.00
2023-05-06T13:06:05.832Z,1.00
2023-05-06T13:08:32.527Z,1.00
2023-05-06T13:11:01.550Z,1.00
2023-05-06T13:13:28.745Z,1.00
2023-05-06T13:15:56.379Z,1.00
2023-05-06T13:18:23.012Z,1.00
2023-05-06T13:20:50.709Z,1.00
2023-05-06T13:23:19.253Z,1.00
2023-05-06T13:25:56.366Z,1.00
2023-05-06T13:28:29.859Z,1.00
2023-05-06T13:30:56.495Z,1.00
2023-05-06T13:33:23.289Z,1.00
2023-05-06T13:35:50.213Z,1.00
2023-05-06T13:38:16.813Z,1.00
2023-05-06T13:40:50.757Z,1.00
2023-05-06T13:43:18.460Z,1.00
2023-05-06T13:45:45.153Z,1.00
2023-05-06T13:48:13.139Z,1.00
2023-05-06T13:50:46.599Z,1.00
2023-05-06T13:53:14.042Z,1.00
2023-05-06T13:55:41.714Z,1.00
2023-05-06T13:58:08.509Z,1.00
2023-05-06T14:00:36.134Z,1.00
2023-05-06T14:03:03.080Z,1.00
2023-05-06T14:05:29.834Z,1.00
2023-05-06T14:07:56.427Z,1.00
2023-05-06T14:10:23.106Z,1.00
2023-05-06T14:12:49.800Z,1.00
2023-05-06T14:15:16.361Z,1.00
2023-05-06T14:17:43.265Z,1.00
2023-05-06T14:20:10.672Z,1.00
2023-05-06T14:22:39.546Z,1.00
2023-05-06T14:25:06.877Z,1.00
2023-05-06T14:27:33.587Z,1.00
2023-05-06T14:30:00.952Z,1.00
2023-05-06T14:32:27.567Z,1.00
2023-05-06T14:34:54.132Z,1.00
2023-05-06T14:37:20.825Z,1.00
2023-05-06T14:39:47.470Z,1.00
2023-05-06T14:42:14.448Z,1.00
2023-05-06T14:44:43.241Z,1.00
2023-05-06T14:47:09.909Z,1.00
2023-05-06T14:49:36.526Z,1.00
2023-05-06T14:52:03.236Z,1.00
2023-05-06T14:54:29.824Z,1.00
2023-05-06T14:57:01.152Z,1.00
2023-05-06T14:59:28.227Z,1.00
2023-05-06T15:01:56.744Z,1.00
2023-05-06T15:04:23.369Z,1.00
2023-05-06T15:06:49.948Z,1.00
2023-05-06T15:09:16.513Z,1.00
2023-05-06T15:11:44.173Z,1.00
2023-05-06T15:14:10.780Z,1.00
2023-05-06T15:16:37.407Z,1.00
2023-05-06T15:19:04.374Z,1.00
2023-05-06T15:21:31.487Z,1.00
2023-05-06T15:23:58.084Z,1.00
2023-05-06T15:26:24.811Z,1.00
2023-05-06T15:28:51.414Z,1.00
2023-05-06T15:31:18.065Z,1.00
2023-05-06T15:33:44.823Z,1.00
2023-05-06T15:36:12.073Z,1.00
2023-05-06T15:38:59.638Z,1.00
2023-05-06T15:41:33.634Z,1.00
2023-05-06T15:44:02.078Z,1.00
2023-05-06T15:46:29.696Z,1.00
2023-05-06T15:49:17.431Z,1.00
2023-05-06T15:51:43.652Z,1.00
2023-05-06T15:54:10.379Z,1.00
2023-05-06T15:56:40.960Z,1.00
2023-05-06T15:59:17.856Z,1.00
2023-05-06T16:04:15.668Z,1.00
2023-05-06T16:06:42.602Z,1.00
2023-05-06T16:09:09.926Z,1.00
2023-05-06T16:11:36.534Z,1.00
2023-05-06T16:14:03.520Z,1.00
2023-05-06T16:16:30.229Z,1.00
2023-05-06T16:18:57.063Z,1.00
2023-05-06T16:21:24.365Z,1.00
2023-05-06T16:23:51.533Z,1.00
2023-05-06T16:26:18.149Z,1.00
2023-05-06T16:28:44.847Z,1.00
2023-05-06T16:31:11.585Z,1.00
2023-05-06T16:33:38.293Z,1.00
2023-05-06T16:36:05.713Z,1.00
2023-05-06T16:38:34.552Z,1.00
2023-05-06T16:41:01.177Z,1.00
2023-05-06T16:43:27.912Z,1.00
2023-05-06T16:45:54.565Z,1.00
2023-05-06T16:48:21.301Z,1.00
2023-05-06T16:50:47.994Z,1.00
2023-05-06T16:53:15.759Z,1.00
2023-05-06T16:55:47.553Z,1.00
2023-05-06T16:58:14.319Z,1.00
2023-05-06T17:00:41.542Z,1.00
2023-05-06T17:03:08.539Z,1.00
2023-05-06T17:05:36.438Z,1.00
2023-05-06T17:08:05.809Z,1.00
2023-05-06T17:10:32.453Z,1.00
2023-05-06T17:12:59.320Z,1.00
2023-05-06T17:15:26.436Z,1.00
2023-05-06T17:17:53.159Z,1.00
2023-05-06T17:20:20.060Z,1.00
2023-05-06T17:22:46.871Z,1.00
2023-05-06T17:25:13.663Z,1.00
2023-05-06T17:27:40.349Z,1.00
2023-05-06T17:30:09.594Z,1.00
2023-05-06T17:32:36.531Z,1.00
2023-05-06T17:35:03.552Z,1.00
2023-05-06T17:37:31.442Z,1.00
2023-05-06T17:39:58.188Z,1.00
2023-05-06T17:42:28.257Z,1.00
2023-05-06T17:44:55.055Z,1.00
2023-05-06T17:47:22.845Z,1.00
2023-05-06T17:49:53.216Z,1.00
2023-05-06T17:52:20.201Z,1.00
2023-05-06T17:54:56.942Z,1.00
2023-05-06T17:57:30.244Z,1.00
2023-05-06T17:59:56.886Z,7.50
2023-05-06T18:02:23.627Z,13.70
2023-05-06T18:04:50.304Z,25.80
2023-05-06T18:07:17.311Z,43.90
2023-05-06T18:09:51.617Z,79.20
2023-05-06T18:12:19.516Z,95.30
2023-05-06T18:14:46.397Z,99.90
2023-05-06T18:17:13.014Z,99.90
2023-05-06T18:19:39.675Z,99.90
2023-05-06T18:22:06.289Z,99.90
2023-05-06T18:24:34.478Z,99.90
2023-05-06T18:27:01.857Z,99.90
2023-05-06T18:29:30.326Z,99.90
2023-05-06T18:31:57.386Z,99.90
2023-05-06T18:34:24.078Z,99.90
2023-05-06T18:36:50.778Z,99.90
2023-05-06T18:39:17.450Z,99.90
2023-05-06T18:41:44.429Z,99.90
2023-05-06T18:44:11.828Z,99.90
2023-05-06T18:46:38.446Z,99.90
2023-05-06T18:49:05.092Z,99.90
2023-05-06T18:51:31.992Z,99.90
2023-05-06T18:53:58.620Z,99.90
2023-05-06T18:56:25.363Z,99.90
2023-05-06T18:58:52.373Z,99.90
2023-05-06T19:01:19.017Z,99.90
2023-05-06T19:03:45.811Z,99.90
2023-05-06T19:06:12.542Z,99.90
2023-05-06T19:08:39.220Z,99.90
2023-05-06T19:11:05.941Z,99.90
2023-05-06T19:13:32.628Z,99.90
2023-05-06T19:15:59.250Z,99.90
2023-05-06T19:18:25.914Z,99.90
2023-05-06T19:20:53.419Z,99.90
2023-05-06T19:23:20.158Z,99.90
2023-05-06T19:25:46.851Z,99.90
2023-05-06T19:28:13.429Z,99.90
2023-05-06T19:30:40.123Z,99.90
2023-05-06T19:33:06.839Z,99.90
2023-05-06T19:35:33.706Z,99.90
2023-05-06T19:38:00.354Z,99.90
2023-05-06T19:40:27.026Z,99.90
2023-05-06T19:42:53.819Z,99.90
2023-05-06T19:45:20.546Z,1.00
2023-05-06T19:47:47.186Z,99.90
2023-05-06T19:50:13.844Z,99.90
2023-05-06T19:52:40.681Z,99.90
2023-05-06T19:55:07.855Z,99.90
2023-05-06T19:57:34.555Z,99.90
2023-05-06T20:00:05.926Z,99.90
2023-05-06T20:02:32.960Z,99.90
2023-05-06T20:05:00.539Z,1.00
2023-05-06T20:07:27.549Z,1.00
2023-05-06T20:09:55.262Z,1.00
2023-05-06T20:12:23.179Z,1.00
2023-05-06T20:14:49.859Z,1.00
2023-05-06T20:17:16.865Z,1.00
2023-05-06T20:19:44.171Z,1.00
2023-05-06T20:22:10.995Z,1.00
2023-05-06T20:24:37.810Z,1.00
2023-05-06T20:27:04.799Z,1.00
2023-05-06T20:29:31.467Z,1.00
2023-05-06T20:31:58.379Z,1.00
2023-05-06T20:34:25.115Z,1.00
2023-05-06T20:36:53.572Z,1.00
2023-05-06T20:39:21.983Z,1.00
2023-05-06T20:41:48.612Z,1.00
2023-05-06T20:44:15.553Z,1.00
2023-05-06T20:46:42.171Z,1.00
2023-05-06T20:49:08.778Z,1.00
2023-05-06T20:51:35.475Z,1.00
2023-05-06T20:54:02.103Z,1.00
2023-05-06T20:56:28.882Z,1.00
2023-05-06T20:58:55.872Z,1.00
2023-05-06T21:01:23.911Z,1.00
2023-05-06T21:03:51.008Z,1.00
2023-05-06T21:06:18.734Z,1.00
2023-05-06T21:08:46.357Z,1.00
2023-05-06T21:11:13.615Z,28.10
2023-05-06T21:13:41.510Z,89.40
2023-05-06T21:16:08.197Z,99.90
2023-05-06T21:18:35.205Z,99.90
2023-05-06T21:21:01.905Z,99.90
2023-05-06T21:23:28.557Z,99.90
2023-05-06T21:25:55.177Z,99.90
2023-05-06T21:28:21.817Z,99.90
2023-05-06T21:30:48.496Z,99.90
2023-05-06T21:33:15.153Z,99.90
2023-05-06T21:35:41.711Z,99.90
2023-05-06T21:38:08.352Z,99.90
2023-05-06T21:40:34.970Z,99.90
2023-05-06T21:43:02.485Z,99.90
2023-05-06T21:45:29.192Z,99.90
2023-05-06T21:47:55.926Z,99.90
2023-05-06T21:50:22.713Z,99.90
2023-05-06T21:52:49.301Z,99.90
2023-05-06T21:55:15.975Z,99.90
2023-05-06T21:57:43.499Z,99.90
2023-05-06T22:00:12.297Z,99.90
2023-05-06T22:02:40.157Z,99.90
2023-05-06T22:05:07.596Z,99.90
2023-05-06T22:07:34.747Z,99.90
2023-05-06T22:10:01.491Z,99.90
2023-05-06T22:12:28.172Z,99.90
2023-05-06T22:14:54.755Z,99.90
2023-05-06T22:17:22.136Z,99.90
2023-05-06T22:19:48.946Z,99.90
2023-05-06T22:22:16.266Z,99.90
2023-05-06T22:24:43.016Z,99.90
2023-05-06T22:27:09.724Z,99.90
2023-05-06T22:29:36.477Z,99.90
2023-05-06T22:32:03.343Z,99.90
2023-05-06T22:34:30.136Z,99.90
2023-05-06T22:36:58.359Z,1.00
2023-05-06T22:39:27.260Z,1.00
2023-05-06T22:41:53.913Z,1.00
2023-05-06T22:44:21.020Z,1.00
2023-05-06T22:46:47.723Z,1.00
2023-05-06T22:49:15.909Z,1.00
2023-05-06T22:51:42.721Z,99.90
2023-05-06T22:54:09.325Z,1.00
2023-05-06T22:56:36.087Z,1.00
2023-05-06T22:59:02.938Z,1.00
2023-05-06T23:01:32.192Z,1.00
2023-05-06T23:03:59.695Z,1.00
2023-05-06T23:06:27.900Z,1.00
2023-05-06T23:08:54.527Z,1.00
2023-05-06T23:11:21.243Z,1.00
2023-05-06T23:13:48.026Z,1.00
2023-05-06T23:16:16.174Z,1.00
2023-05-06T23:18:42.823Z,1.00
2023-05-06T23:21:09.454Z,1.00
2023-05-06T23:23:36.089Z,1.00
2023-05-06T23:26:02.840Z,1.00
2023-05-06T23:28:29.642Z,1.00
2023-05-06T23:30:56.406Z,1.00
2023-05-06T23:33:23.194Z,1.00
2023-05-06T23:35:49.805Z,1.00
2023-05-06T23:38:16.409Z,1.00
2023-05-06T23:40:43.060Z,1.00
2023-05-06T23:43:11.281Z,40.80
2023-05-06T23:45:38.285Z,20.90
2023-05-06T23:48:05.550Z,14.00
2023-05-06T23:50:32.193Z,99.90
2023-05-06T23:52:58.840Z,99.90
2023-05-06T23:55:28.297Z,99.90
2023-05-06T23:57:54.991Z,99.90
